Time;durP1;ratioP1;P1;durP2;ratioP2;P2;SDS_P1;SDS_P2;PMS_P1;PMS_P2;Temp;Humidity;BMP_temperature;BMP_pressure;BME280_temperature;BME280_humidity;BME280_pressure;Samples;Min_cycle;Max_cycle;Signal;HPM_P1;HPM_P2
2023/09/28 00:02:54;;;;;;;9.70;6.45;;;19.00;99.90;;;;;;5013995;28;20424;-55
2023/09/28 00:05:21;;;;;;;7.18;6.40;;;19.00;99.90;;;;;;5012460;28;20051;-57
2023/09/28 00:07:49;;;;;;;9.98;7.22;;;19.00;99.90;;;;;;5011140;28;20080;-55
2023/09/28 00:10:16;;;;;;;12.23;6.82;;;19.00;99.90;;;;;;5011152;28;20120;-56
2023/09/28 00:12:45;;;;;;;8.35;6.90;;;19.00;99.90;;;;;;5014089;28;20042;-55
2023/09/28 00:15:11;;;;;;;7.70;6.90;;;19.00;99.90;;;;;;5000065;28;20458;-55
2023/09/28 00:17:40;;;;;;;8.00;6.53;;;19.00;99.90;;;;;;5006453;28;20049;-55
2023/09/28 00:20:17;;;;;;;10.25;7.28;;;19.00;99.90;;;;;;5005584;28;20565;-56
2023/09/28 00:22:47;;;;;;;8.15;6.40;;;19.00;99.90;;;;;;5009737;28;20121;-56
2023/09/28 00:25:16;;;;;;;9.02;7.05;;;19.00;99.90;;;;;;5008847;28;20049;-57
2023/09/28 00:27:46;;;;;;;10.00;6.55;;;18.90;99.90;;;;;;5007384;28;20037;-56
2023/09/28 00:30:24;;;;;;;8.85;6.75;;;18.90;99.90;;;;;;5004947;28;20409;-57
2023/09/28 00:32:52;;;;;;;9.55;6.97;;;18.90;99.90;;;;;;5009214;28;20366;-56
2023/09/28 00:35:18;;;;;;;7.85;6.65;;;18.90;99.90;;;;;;5008824;28;20042;-57
2023/09/28 00:37:45;;;;;;;9.65;7.60;;;19.00;99.90;;;;;;5006586;28;20072;-55
2023/09/28 00:42:44;;;;;;;9.80;7.63;;;19.00;99.90;;;;;;5009182;28;20046;-56
2023/09/28 00:45:10;;;;;;;8.40;7.30;;;18.90;99.90;;;;;;5013001;28;20100;-57
2023/09/28 00:47:39;;;;;;;9.63;7.50;;;18.90;99.90;;;;;;5010357;28;20045;-56
2023/09/28 00:50:11;;;;;;;8.45;6.82;;;18.90;99.90;;;;;;5014049;28;20137;-57
2023/09/28 00:52:38;;;;;;;9.10;6.93;;;18.90;99.90;;;;;;5011193;28;20152;-57
2023/09/28 00:55:06;;;;;;;10.95;7.07;;;18.80;99.90;;;;;;5013583;28;20038;-56
2023/09/28 00:57:33;;;;;;;10.75;7.15;;;18.90;99.90;;;;;;5012870;28;20068;-55
2023/09/28 01:00:18;;;;;;;10.10;7.53;;;18.80;99.90;;;;;;5012378;28;20037;-55
2023/09/28 01:02:51;;;;;;;10.95;7.32;;;18.80;99.90;;;;;;5010570;28;20045;-55
2023/09/28 01:05:18;;;;;;;8.13;6.95;;;18.80;99.90;;;;;;4984988;28;20041;-57
2023/09/28 01:07:44;;;;;;;10.52;7.43;;;18.70;99.90;;;;;;5005061;28;20056;-55
2023/09/28 01:10:12;;;;;;;9.45;7.00;;;18.70;99.90;;;;;;5009009;28;20098;-56
2023/09/28 01:12:41;;;;;;;8.23;7.38;;;18.70;99.90;;;;;;5011271;28;20048;-56
2023/09/28 01:15:16;;;;;;;7.32;6.50;;;18.70;99.90;;;;;;5009678;28;20037;-56
2023/09/28 01:17:43;;;;;;;7.60;6.78;;;18.70;99.90;;;;;;5009604;28;20029;-57
2023/09/28 01:20:17;;;;;;;7.50;6.65;;;18.70;99.90;;;;;;5011494;28;20480;-55
2023/09/28 01:22:45;;;;;;;8.15;6.63;;;18.70;99.90;;;;;;5013947;28;20092;-53
2023/09/28 01:25:11;;;;;;;8.43;6.85;;;18.70;99.90;;;;;;5013636;28;20529;-56
2023/09/28 01:27:37;;;;;;;8.80;7.03;;;18.70;99.90;;;;;;5012318;28;20759;-55
2023/09/28 01:30:06;;;;;;;7.93;6.72;;;18.70;99.90;;;;;;5009961;28;20044;-56
2023/09/28 01:32:32;;;;;;;8.50;6.57;;;18.60;99.90;;;;;;5010764;28;20053;-56
2023/09/28 01:34:58;;;;;;;7.15;6.18;;;18.60;99.90;;;;;;5014009;28;20390;-56
2023/09/28 01:37:30;;;;;;;8.45;6.57;;;18.60;99.90;;;;;;5012135;28;20085;-57
2023/09/28 01:39:56;;;;;;;11.10;6.10;;;18.60;99.90;;;;;;5015873;28;20188;-57
2023/09/28 01:42:21;;;;;;;12.23;6.90;;;18.60;99.90;;;;;;5010307;28;20041;-56
2023/09/28 01:44:47;;;;;;;10.45;6.30;;;18.60;99.90;;;;;;4994909;28;20050;-55
2023/09/28 01:47:13;;;;;;;9.57;6.38;;;18.60;99.90;;;;;;5010130;28;20115;-57
2023/09/28 01:49:39;;;;;;;7.43;6.35;;;18.60;99.90;;;;;;5011407;28;20042;-56
2023/09/28 01:52:04;;;;;;;7.47;6.13;;;18.60;99.90;;;;;;5012333;28;20497;-56
2023/09/28 01:54:30;;;;;;;12.93;6.60;;;18.60;99.90;;;;;;5010823;28;20084;-57
2023/09/28 01:56:56;;;;;;;7.72;5.95;;;18.60;99.90;;;;;;5010457;28;20042;-57
2023/09/28 01:59:21;;;;;;;11.98;7.10;;;18.60;99.90;;;;;;5011372;28;20041;-56
2023/09/28 02:01:47;;;;;;;8.85;6.50;;;18.50;99.90;;;;;;5011164;28;20120;-56
2023/09/28 02:04:13;;;;;;;10.90;6.63;;;18.50;99.90;;;;;;5001280;28;20048;-57
2023/09/28 02:06:38;;;;;;;8.73;6.65;;;18.50;99.90;;;;;;4995163;28;20639;-57
2023/09/28 02:09:05;;;;;;;9.38;6.28;;;18.50;99.90;;;;;;5011860;28;20076;-55
2023/09/28 02:11:31;;;;;;;9.30;6.72;;;18.50;99.90;;;;;;5010013;28;20611;-56
2023/09/28 02:13:57;;;;;;;7.82;5.93;;;18.50;99.90;;;;;;5010533;28;20916;-56
2023/09/28 02:16:22;;;;;;;7.95;5.85;;;18.40;99.90;;;;;;5010159;28;20037;-57
2023/09/28 02:18:48;;;;;;;8.23;6.25;;;18.40;99.90;;;;;;5010550;28;20060;-56
2023/09/28 02:21:14;;;;;;;8.45;5.80;;;18.40;99.90;;;;;;5017845;28;20045;-56
2023/09/28 02:23:41;;;;;;;8.18;5.70;;;18.40;99.90;;;;;;5011505;28;20505;-56
2023/09/28 02:26:07;;;;;;;10.52;5.82;;;18.40;99.90;;;;;;5011185;28;20080;-57
2023/09/28 02:28:33;;;;;;;7.55;5.72;;;18.40;99.90;;;;;;5010120;28;20436;-57
2023/09/28 02:31:08;;;;;;;9.75;6.07;;;18.30;99.90;;;;;;5009999;28;20461;-56
2023/09/28 02:33:34;;;;;;;6.97;5.82;;;18.40;99.90;;;;;;5008993;28;20488;-56
2023/09/28 02:36:00;;;;;;;10.45;5.80;;;18.30;99.90;;;;;;5012935;28;20029;-57
2023/09/28 02:38:26;;;;;;;7.63;5.82;;;18.30;99.90;;;;;;5010775;28;20468;-56
2023/09/28 02:40:51;;;;;;;7.32;5.90;;;18.30;99.90;;;;;;5012605;28;20076;-55
2023/09/28 02:43:17;;;;;;;8.75;6.00;;;18.20;99.90;;;;;;5011675;28;20095;-57
2023/09/28 02:45:43;;;;;;;8.43;5.95;;;18.20;99.90;;;;;;5011381;28;20045;-55
2023/09/28 02:48:08;;;;;;;8.10;6.30;;;18.20;99.90;;;;;;5007653;28;20038;-54
2023/09/28 02:50:34;;;;;;;8.68;5.70;;;18.20;99.90;;;;;;5005426;28;20079;-56
2023/09/28 02:53:00;;;;;;;7.35;5.85;;;18.20;99.90;;;;;;5012925;28;20041;-56
2023/09/28 02:55:25;;;;;;;9.57;6.22;;;18.10;99.90;;;;;;5011550;28;20969;-57
2023/09/28 02:57:51;;;;;;;8.65;6.55;;;18.10;99.90;;;;;;5008884;28;20087;-55
2023/09/28 03:02:53;;;;;;;12.73;7.75;;;18.00;99.90;;;;;;5011093;28;20503;-57
2023/09/28 03:05:22;;;;;;;9.02;7.28;;;18.00;99.90;;;;;;5016716;28;20033;-55
2023/09/28 03:07:49;;;;;;;11.52;6.88;;;18.00;99.90;;;;;;5013163;28;20405;-57
2023/09/28 03:10:14;;;;;;;10.63;6.47;;;17.90;99.90;;;;;;5010569;28;20658;-56
2023/09/28 03:12:42;;;;;;;11.68;6.30;;;17.90;99.90;;;;;;5013114;28;20037;-57
2023/09/28 03:15:11;;;;;;;9.88;6.22;;;17.80;99.90;;;;;;5008669;28;20040;-56
2023/09/28 03:17:39;;;;;;;8.85;6.75;;;17.80;99.90;;;;;;5010438;28;20046;-57
2023/09/28 03:20:14;;;;;;;11.23;7.93;;;17.80;99.90;;;;;;5013338;28;20095;-57
2023/09/28 03:22:49;;;;;;;10.82;8.75;;;17.70;99.90;;;;;;5027244;28;20061;-56
2023/09/28 03:25:17;;;;;;;18.60;7.60;;;17.70;99.90;;;;;;5010034;28;20046;-55
2023/09/28 03:27:44;;;;;;;15.48;8.63;;;17.70;99.90;;;;;;5012034;28;20521;-55
2023/09/28 03:30:11;;;;;;;13.52;9.65;;;17.60;99.90;;;;;;5008697;28;20034;-57
2023/09/28 03:32:38;;;;;;;10.70;8.07;;;17.70;99.90;;;;;;5009041;28;20069;-57
2023/09/28 03:35:07;;;;;;;12.25;7.50;;;17.60;99.90;;;;;;5015062;28;20549;-56
2023/09/28 03:37:33;;;;;;;11.25;6.90;;;17.60;99.90;;;;;;5016724;28;20041;-55
2023/09/28 03:40:00;;;;;;;11.70;7.10;;;17.60;99.90;;;;;;5018221;28;20434;-56
2023/09/28 03:42:27;;;;;;;8.02;6.60;;;17.60;99.90;;;;;;5017081;28;20052;-55
2023/09/28 03:44:53;;;;;;;12.27;7.30;;;17.50;99.90;;;;;;5016997;28;20783;-56
2023/09/28 03:47:19;;;;;;;11.20;7.20;;;17.50;99.90;;;;;;5018432;28;20045;-57
2023/09/28 03:49:45;;;;;;;8.38;6.75;;;17.50;99.90;;;;;;5019365;28;20041;-57
2023/09/28 03:52:11;;;;;;;9.52;7.25;;;17.50;99.90;;;;;;5018110;28;20037;-55
2023/09/28 03:54:36;;;;;;;9.88;7.00;;;17.50;99.90;;;;;;5017533;28;20489;-57
2023/09/28 03:57:02;;;;;;;9.50;7.00;;;17.50;99.90;;;;;;5017341;28;20508;-57
2023/09/28 03:59:28;;;;;;;11.10;6.90;;;17.40;99.90;;;;;;5015277;28;20029;-55
2023/09/28 04:01:54;;;;;;;8.00;6.75;;;17.40;99.90;;;;;;5018856;28;20037;-56
2023/09/28 04:04:20;;;;;;;11.32;7.10;;;17.40;99.90;;;;;;5018067;28;20159;-56
2023/09/28 04:06:45;;;;;;;10.50;6.65;;;17.40;99.90;;;;;;5015843;28;20132;-56
2023/09/28 04:09:11;;;;;;;9.30;6.43;;;17.40;99.90;;;;;;5016462;28;20084;-57
2023/09/28 04:11:37;;;;;;;12.82;7.15;;;17.40;99.90;;;;;;5012541;28;20045;-57
2023/09/28 04:14:03;;;;;;;11.13;6.85;;;17.40;99.90;;;;;;5031958;28;20464;-56
2023/09/28 04:16:28;;;;;;;11.52;7.40;;;17.30;99.90;;;;;;5016842;28;20417;-57
2023/09/28 04:18:54;;;;;;;10.35;7.20;;;17.40;99.90;;;;;;5016929;28;20124;-56
2023/09/28 04:21:20;;;;;;;9.70;7.30;;;17.30;99.90;;;;;;5014494;28;20646;-54
2023/09/28 04:23:45;;;;;;;10.05;7.18;;;17.30;99.90;;;;;;5017154;28;20064;-56
2023/09/28 04:26:11;;;;;;;10.52;7.13;;;17.30;99.90;;;;;;5016495;28;20067;-56
2023/09/28 04:28:37;;;;;;;11.35;7.22;;;17.20;99.90;;;;;;5014327;28;20115;-56
2023/09/28 04:31:03;;;;;;;10.05;7.18;;;17.20;99.90;;;;;;5016681;28;20045;-56
2023/09/28 04:33:29;;;;;;;10.23;6.60;;;17.20;99.90;;;;;;5015906;28;20046;-53
2023/09/28 04:35:55;;;;;;;9.38;7.32;;;17.20;99.90;;;;;;5016592;28;20042;-55
2023/09/28 04:38:22;;;;;;;10.70;7.03;;;17.10;99.90;;;;;;5016210;28;20146;-55
2023/09/28 04:40:47;;;;;;;13.77;7.22;;;17.10;99.90;;;;;;5017536;28;20060;-57
2023/09/28 04:43:13;;;;;;;12.20;8.40;;;17.10;99.90;;;;;;5014963;28;20042;-56
2023/09/28 04:45:39;;;;;;;12.90;7.53;;;17.00;99.90;;;;;;5017594;28;20050;-57
2023/09/28 04:48:05;;;;;;;9.43;7.70;;;17.00;99.90;;;;;;5028068;28;20712;-57
2023/09/28 04:50:30;;;;;;;13.90;8.98;;;17.00;99.90;;;;;;5012693;28;20156;-55
2023/09/28 04:52:56;;;;;;;14.52;8.40;;;16.90;99.90;;;;;;4999871;28;20457;-55
2023/09/28 04:55:23;;;;;;;18.90;9.55;;;16.90;99.90;;;;;;5009723;28;20037;-56
2023/09/28 04:57:49;;;;;;;13.98;9.98;;;16.90;99.90;;;;;;5010404;28;20041;-57
2023/09/28 05:00:16;;;;;;;10.95;8.60;;;16.80;99.90;;;;;;5003103;28;20087;-57
2023/09/28 05:02:45;;;;;;;12.80;8.52;;;16.80;99.90;;;;;;5005425;28;20041;-56
2023/09/28 05:05:12;;;;;;;12.75;7.97;;;16.80;99.90;;;;;;5022428;28;20057;-56
2023/09/28 05:07:37;;;;;;;11.38;7.32;;;16.80;99.90;;;;;;5008653;28;20815;-55
2023/09/28 05:10:05;;;;;;;12.45;7.90;;;16.80;99.90;;;;;;5009946;28;20103;-55
2023/09/28 05:12:32;;;;;;;14.18;7.65;;;16.80;99.90;;;;;;5005097;28;20476;-57
2023/09/28 05:14:59;;;;;;;11.32;7.30;;;16.80;99.90;;;;;;5005530;28;20045;-56
2023/09/28 05:17:24;;;;;;;11.48;7.57;;;16.70;99.90;;;;;;5008620;28;20050;-56
2023/09/28 05:19:50;;;;;;;11.43;7.35;;;16.70;99.90;;;;;;4991585;28;20093;-55
2023/09/28 05:22:16;;;;;;;15.70;7.53;;;16.70;99.90;;;;;;4986441;28;20040;-57
2023/09/28 05:24:42;;;;;;;10.60;6.85;;;16.70;99.90;;;;;;4987290;28;20076;-56
2023/09/28 05:27:08;;;;;;;11.35;6.82;;;16.70;99.90;;;;;;4991372;28;20034;-56
2023/09/28 05:29:34;;;;;;;13.45;6.60;;;16.70;99.90;;;;;;4988249;28;20511;-56
2023/09/28 05:31:59;;;;;;;13.13;6.50;;;16.60;99.90;;;;;;4989377;28;20041;-56
2023/09/28 05:34:25;;;;;;;14.20;6.55;;;16.60;99.90;;;;;;4985079;28;20102;-57
2023/09/28 05:36:51;;;;;;;9.85;5.55;;;16.60;99.90;;;;;;4989685;28;20116;-56
2023/09/28 05:39:18;;;;;;;13.38;5.55;;;16.60;99.90;;;;;;4976624;28;20038;-56
2023/09/28 05:41:44;;;;;;;12.35;4.82;;;16.60;99.90;;;;;;4993379;28;20092;-56
2023/09/28 05:44:10;;;;;;;13.88;4.22;;;16.60;99.90;;;;;;4994443;28;20037;-57
2023/09/28 05:46:36;;;;;;;17.33;4.50;;;16.60;99.90;;;;;;4990324;28;20045;-57
2023/09/28 05:49:02;;;;;;;19.58;4.88;;;16.60;99.90;;;;;;4993276;28;20037;-56
2023/09/28 05:51:28;;;;;;;12.65;4.15;;;16.60;99.90;;;;;;4992477;28;20695;-56
2023/09/28 05:53:54;;;;;;;15.70;3.72;;;16.60;99.90;;;;;;4991449;28;20037;-57
2023/09/28 05:56:20;;;;;;;12.80;4.18;;;16.60;99.90;;;;;;4992248;28;20061;-56
2023/09/28 05:58:46;;;;;;;27.00;4.85;;;16.50;99.90;;;;;;4993891;28;20057;-55
2023/09/28 06:01:15;;;;;;;17.05;3.92;;;16.60;99.90;;;;;;4950474;28;20695;-56
2023/09/28 06:03:40;;;;;;;22.42;3.92;;;16.60;99.90;;;;;;4985064;28;20125;-57
2023/09/28 06:06:15;;;;;;;19.27;3.70;;;16.60;99.90;;;;;;4984272;28;20054;-55
2023/09/28 06:08:42;;;;;;;23.30;4.55;;;16.60;99.90;;;;;;5002195;28;20062;-57
2023/09/28 06:11:12;;;;;;;19.60;4.65;;;16.60;99.90;;;;;;4973738;28;20045;-55
2023/09/28 06:13:40;;;;;;;24.92;5.03;;;16.60;99.90;;;;;;4984742;28;20081;-56
2023/09/28 06:16:06;;;;;;;20.27;4.57;;;16.60;99.90;;;;;;4983163;28;20057;-55
2023/09/28 06:18:32;;;;;;;25.67;3.83;;;16.60;99.90;;;;;;4990181;28;20038;-56
2023/09/28 06:20:57;;;;;;;15.30;3.80;;;16.60;99.90;;;;;;5008806;28;20485;-55
2023/09/28 06:23:23;;;;;;;14.05;4.00;;;16.50;99.90;;;;;;5014125;28;20096;-57
2023/09/28 06:25:49;;;;;;;20.33;5.35;;;16.60;99.90;;;;;;5012741;28;20127;-56
2023/09/28 06:28:15;;;;;;;15.70;3.90;;;16.50;99.90;;;;;;5011819;28;20045;-57
2023/09/28 06:30:40;;;;;;;16.25;4.55;;;16.60;99.90;;;;;;4987149;28;20049;-57
2023/09/28 06:33:06;;;;;;;15.63;4.60;;;16.60;99.90;;;;;;5007313;28;20114;-56
2023/09/28 06:35:32;;;;;;;21.80;5.40;;;16.60;99.90;;;;;;5011118;28;20429;-57
2023/09/28 06:38:00;;;;;;;19.63;5.13;;;16.60;99.90;;;;;;5010490;28;20052;-59
2023/09/28 06:40:26;;;;;;;20.27;5.88;;;16.60;99.90;;;;;;4993089;28;20119;-59
2023/09/28 06:42:52;;;;;;;18.38;4.63;;;16.50;99.90;;;;;;5008414;28;20899;-59
2023/09/28 06:45:18;;;;;;;20.20;4.38;;;16.50;99.90;;;;;;4993496;28;20053;-59
2023/09/28 06:47:44;;;;;;;17.98;4.55;;;16.60;99.90;;;;;;4965964;28;20084;-59
2023/09/28 06:50:11;;;;;;;22.30;4.55;;;16.60;99.90;;;;;;4998188;28;20716;-58
2023/09/28 06:52:37;;;;;;;20.77;4.60;;;16.60;99.90;;;;;;5002915;28;20050;-59
2023/09/28 06:55:04;;;;;;;20.20;4.80;;;16.60;99.90;;;;;;5002269;28;20042;-59
2023/09/28 06:57:30;;;;;;;19.63;4.00;;;16.60;99.90;;;;;;5007762;28;20083;-57
2023/09/28 06:59:56;;;;;;;18.58;4.22;;;16.60;99.90;;;;;;5007944;28;20046;-59
2023/09/28 07:02:21;;;;;;;22.48;4.38;;;16.70;99.90;;;;;;4991315;28;20068;-59
2023/09/28 07:04:48;;;;;;;24.13;4.35;;;16.70;99.90;;;;;;5008631;28;20041;-59
2023/09/28 07:07:17;;;;;;;23.85;4.68;;;16.70;99.90;;;;;;5004707;28;20536;-59
2023/09/28 07:09:46;;;;;;;24.58;4.10;;;16.80;99.90;;;;;;4990767;28;20060;-59
2023/09/28 07:12:12;;;;;;;25.70;4.50;;;16.80;99.90;;;;;;5005297;28;20033;-59
2023/09/28 07:14:37;;;;;;;28.25;5.40;;;16.90;99.90;;;;;;5005618;28;20068;-59
2023/09/28 07:17:03;;;;;;;26.98;4.90;;;16.90;99.90;;;;;;5009298;28;20507;-59
2023/09/28 07:19:29;;;;;;;23.35;4.72;;;17.00;99.90;;;;;;5003820;28;20084;-59
2023/09/28 07:21:55;;;;;;;25.15;4.90;;;17.00;99.90;;;;;;5004081;28;20049;-59
2023/09/28 07:24:21;;;;;;;20.50;4.07;;;17.00;99.90;;;;;;5006409;28;20053;-59
2023/09/28 07:26:47;;;;;;;19.77;4.85;;;17.10;99.90;;;;;;5007424;28;20080;-58
2023/09/28 07:29:12;;;;;;;31.20;4.75;;;17.20;99.90;;;;;;4989498;28;20531;-59
2023/09/28 07:31:38;;;;;;;27.70;4.60;;;17.30;99.90;;;;;;4989115;28;20053;-60
2023/09/28 07:34:05;;;;;;;23.73;4.80;;;17.40;99.90;;;;;;5003914;28;20049;-59
2023/09/28 07:36:31;;;;;;;29.38;4.68;;;17.50;99.90;;;;;;5008035;28;20738;-59
2023/09/28 07:38:57;;;;;;;23.13;4.32;;;17.50;99.90;;;;;;5007603;28;20036;-58
2023/09/28 07:41:24;;;;;;;31.08;4.70;;;17.60;99.90;;;;;;5005383;28;20054;-59
2023/09/28 07:43:50;;;;;;;18.65;4.30;;;17.70;99.90;;;;;;5003804;28;20037;-59
2023/09/28 07:46:16;;;;;;;29.63;5.57;;;17.70;99.90;;;;;;5003259;28;21069;-59
2023/09/28 07:48:41;;;;;;;23.58;4.45;;;17.80;99.90;;;;;;4992790;28;20235;-59
2023/09/28 07:51:07;;;;;;;24.48;4.32;;;17.90;99.90;;;;;;4988373;28;20104;-58
2023/09/28 07:53:33;;;;;;;29.23;4.95;;;17.90;99.90;;;;;;5006575;28;20494;-59
2023/09/28 07:55:58;;;;;;;30.15;5.47;;;18.00;99.90;;;;;;4997272;28;20128;-59
2023/09/28 07:58:24;;;;;;;28.55;4.97;;;18.00;99.90;;;;;;5005805;28;20076;-60
2023/09/28 08:00:50;;;;;;;27.40;4.32;;;18.10;99.90;;;;;;4991283;28;20137;-60
2023/09/28 08:03:15;;;;;;;29.55;4.55;;;18.10;99.90;;;;;;4987390;28;20037;-58
2023/09/28 08:05:41;;;;;;;28.33;4.65;;;18.20;99.90;;;;;;5006381;28;20510;-59
2023/09/28 08:08:07;;;;;;;22.02;4.55;;;18.20;99.90;;;;;;5005279;28;20041;-60
2023/09/28 08:10:33;;;;;;;26.05;5.03;;;18.20;99.90;;;;;;5008231;28;20494;-58
2023/09/28 08:13:00;;;;;;;22.42;4.18;;;18.30;99.90;;;;;;5005124;28;20056;-58
2023/09/28 08:15:26;;;;;;;23.20;4.15;;;18.30;99.90;;;;;;5004347;28;20040;-59
2023/09/28 08:17:51;;;;;;;24.35;4.22;;;18.40;99.90;;;;;;5003431;28;20049;-59
2023/09/28 08:20:20;;;;;;;28.90;5.43;;;18.40;99.90;;;;;;5006137;28;20128;-59
2023/09/28 08:22:46;;;;;;;23.60;5.38;;;18.50;99.90;;;;;;5021102;28;20059;-59
2023/09/28 08:25:13;;;;;;;26.45;4.40;;;18.50;99.90;;;;;;5005615;28;20084;-58
2023/09/28 08:27:41;;;;;;;24.30;4.43;;;18.60;99.90;;;;;;5008397;28;20676;-60
2023/09/28 08:30:07;;;;;;;21.05;3.72;;;18.70;99.90;;;;;;5006282;28;20043;-59
2023/09/28 08:32:33;;;;;;;19.75;4.05;;;18.70;99.90;;;;;;5008549;28;20053;-58
2023/09/28 08:34:59;;;;;;;21.42;4.50;;;18.80;99.90;;;;;;5006809;28;20046;-59
2023/09/28 08:37:25;;;;;;;23.70;3.70;;;18.90;99.90;;;;;;4997938;28;20577;-59
2023/09/28 08:39:51;;;;;;;22.58;4.38;;;19.00;99.90;;;;;;5009094;28;20436;-59
2023/09/28 08:42:23;;;;;;;19.13;3.80;;;19.00;99.90;;;;;;5010436;28;20104;-58
2023/09/28 08:44:59;;;;;;;19.20;4.00;;;19.10;99.90;;;;;;4995721;28;20049;-59
2023/09/28 08:47:26;;;;;;;18.48;3.83;;;19.10;99.90;;;;;;4994900;28;20041;-59
2023/09/28 08:49:52;;;;;;;19.63;4.25;;;19.10;99.90;;;;;;5006314;28;20042;-59
2023/09/28 08:52:19;;;;;;;18.73;4.25;;;19.30;99.90;;;;;;5005908;28;20071;-59
2023/09/28 08:54:45;;;;;;;23.20;3.92;;;19.30;99.90;;;;;;4996065;28;20064;-59
2023/09/28 08:57:11;;;;;;;24.95;3.95;;;19.40;99.90;;;;;;5000491;28;20515;-58
2023/09/28 08:59:37;;;;;;;16.35;3.10;;;19.40;99.90;;;;;;4999244;28;20049;-58
2023/09/28 09:02:04;;;;;;;21.92;3.25;;;19.40;99.90;;;;;;5010406;28;20931;-59
2023/09/28 09:04:36;;;;;;;23.00;3.22;;;19.50;99.90;;;;;;4996052;28;20057;-59
2023/09/28 09:07:05;;;;;;;17.52;3.97;;;19.50;99.90;;;;;;5008396;28;20076;-58
2023/09/28 09:09:40;;;;;;;22.60;3.72;;;19.50;99.90;;;;;;5023018;28;20057;-59
2023/09/28 09:12:09;;;;;;;23.80;3.90;;;19.60;99.90;;;;;;5010137;28;20057;-59
2023/09/28 09:14:35;;;;;;;19.50;3.55;;;19.60;99.90;;;;;;5007100;28;20060;-59
2023/09/28 09:17:04;;;;;;;22.50;3.80;;;19.60;99.90;;;;;;5009043;28;20037;-59
2023/09/28 09:19:31;;;;;;;16.70;3.95;;;19.60;99.90;;;;;;5006275;28;20103;-60
2023/09/28 09:21:57;;;;;;;19.60;4.28;;;19.60;99.90;;;;;;5006998;28;20068;-59
2023/09/28 09:24:23;;;;;;;23.08;4.65;;;19.60;99.90;;;;;;5009789;28;20355;-59
2023/09/28 09:26:52;;;;;;;19.98;4.20;;;19.50;99.90;;;;;;5007787;28;20485;-59
2023/09/28 09:29:19;;;;;;;23.75;4.60;;;19.50;99.90;;;;;;5005793;28;20172;-59
2023/09/28 09:31:47;;;;;;;15.55;3.40;;;19.50;99.90;;;;;;5007519;28;20671;-58
2023/09/28 09:34:17;;;;;;;25.27;4.20;;;19.50;99.90;;;;;;4974168;28;20099;-59
2023/09/28 09:36:48;;;;;;;23.75;3.72;;;19.40;99.90;;;;;;5008419;28;20405;-59
2023/09/28 09:39:25;;;;;;;19.27;3.70;;;19.50;99.90;;;;;;5007488;28;20041;-58
2023/09/28 09:41:55;;;;;;;24.33;4.10;;;19.50;99.90;;;;;;5009142;28;20520;-59
2023/09/28 09:44:26;;;;;;;22.67;4.10;;;19.50;99.90;;;;;;4991469;28;20053;-59
2023/09/28 09:46:54;;;;;;;19.13;3.70;;;19.40;99.90;;;;;;4995027;28;20136;-59
2023/09/28 09:49:23;;;;;;;24.92;3.95;;;19.50;99.90;;;;;;5009193;28;20625;-59
2023/09/28 09:51:49;;;;;;;22.02;4.63;;;19.50;99.90;;;;;;5006517;28;20045;-59
2023/09/28 09:54:16;;;;;;;27.13;4.50;;;19.60;99.90;;;;;;5020181;28;20056;-59
2023/09/28 09:56:50;;;;;;;19.48;4.07;;;19.60;99.90;;;;;;5007322;28;20124;-60
2023/09/28 09:59:19;;;;;;;17.23;3.58;;;19.60;99.90;;;;;;4999077;28;20138;-60
2023/09/28 10:01:48;;;;;;;16.65;3.17;;;19.60;99.90;;;;;;5002821;28;20470;-59
2023/09/28 10:04:16;;;;;;;17.02;3.47;;;19.60;99.90;;;;;;4992115;28;20145;-59
2023/09/28 10:06:48;;;;;;;22.85;3.78;;;19.70;99.90;;;;;;5009056;28;20116;-58
2023/09/28 10:09:20;;;;;;;15.13;3.55;;;19.70;99.90;;;;;;5000176;28;20045;-57
2023/09/28 10:11:48;;;;;;;22.33;6.22;;;19.70;99.90;;;;;;5011822;28;20143;-59
2023/09/28 10:14:19;;;;;;;20.88;5.15;;;19.80;99.90;;;;;;5009190;28;20792;-58
2023/09/28 10:16:48;;;;;;;23.48;5.30;;;19.80;99.90;;;;;;5007346;28;20054;-59
2023/09/28 10:19:19;;;;;;;25.85;5.40;;;19.80;99.90;;;;;;5015971;28;20065;-59
2023/09/28 10:21:51;;;;;;;18.83;3.78;;;19.80;99.90;;;;;;5004091;28;20053;-59
2023/09/28 10:24:17;;;;;;;18.85;3.80;;;19.80;99.90;;;;;;5008060;28;20084;-59
2023/09/28 10:26:52;;;;;;;19.02;4.65;;;19.80;99.90;;;;;;5006618;28;20084;-59
2023/09/28 10:29:30;;;;;;;22.65;4.40;;;19.90;99.90;;;;;;4985079;28;20442;-59
2023/09/28 10:31:57;;;;;;;21.40;4.28;;;19.80;99.90;;;;;;5005220;28;20052;-59
2023/09/28 10:34:25;;;;;;;18.95;3.83;;;19.80;99.90;;;;;;4991862;28;20046;-59
2023/09/28 10:37:10;;;;;;;21.10;4.55;;;19.80;99.90;;;;;;5006002;28;20046;-59
2023/09/28 10:39:42;;;;;;;21.20;5.03;;;19.80;99.90;;;;;;5004043;28;20057;-59
2023/09/28 10:42:13;;;;;;;24.08;5.45;;;19.80;99.90;;;;;;5005736;28;20072;-59
2023/09/28 10:45:05;;;;;;;16.90;4.03;;;19.80;99.90;;;;;;5007714;28;20408;-58
2023/09/28 10:47:32;;;;;;;19.20;4.07;;;19.80;99.90;;;;;;5005527;28;20050;-59
2023/09/28 10:50:08;;;;;;;15.05;3.42;;;19.80;99.90;;;;;;4992158;28;20045;-60
2023/09/28 10:52:34;;;;;;;18.80;4.65;;;19.80;99.90;;;;;;4987354;28;20056;-59
2023/09/28 10:55:00;;;;;;;25.35;4.65;;;19.80;99.90;;;;;;5005795;28;20046;-57
2023/09/28 10:57:31;;;;;;;20.70;3.50;;;19.80;99.90;;;;;;4996992;28;20120;-59
2023/09/28 11:00:01;;;;;;;26.58;4.28;;;19.80;99.90;;;;;;5006151;28;20485;-58
2023/09/28 11:02:27;;;;;;;22.83;4.55;;;19.70;99.90;;;;;;5000064;28;20040;-58
2023/09/28 11:04:52;;;;;;;21.45;4.53;;;19.70;99.90;;;;;;5004800;28;20038;-60
2023/09/28 11:07:18;;;;;;;21.05;4.97;;;19.70;99.90;;;;;;5004851;28;20061;-59
2023/09/28 11:09:44;;;;;;;18.70;4.40;;;19.60;99.90;;;;;;4997121;28;20433;-59
2023/09/28 11:12:10;;;;;;;20.65;4.47;;;19.60;99.90;;;;;;5008805;28;20077;-59
2023/09/28 11:14:43;;;;;;;20.95;4.30;;;19.60;99.90;;;;;;5007617;28;20628;-59
2023/09/28 11:17:11;;;;;;;;;;;19.60;99.90;;;;;;4985938;28;20049;-59
2023/09/28 11:19:37;;;;;;;19.35;4.30;;;19.50;99.90;;;;;;4998470;28;19932;-59
2023/09/28 11:22:03;;;;;;;19.90;3.70;;;19.50;99.90;;;;;;4985025;28;20050;-59
2023/09/28 11:24:29;;;;;;;19.08;4.35;;;19.50;99.90;;;;;;4988064;28;20579;-59
2023/09/28 11:26:56;;;;;;;23.10;3.88;;;19.50;99.90;;;;;;4969537;28;20548;-59
2023/09/28 11:29:22;;;;;;;15.20;3.75;;;19.50;99.90;;;;;;4983559;28;20112;-59
2023/09/28 11:31:50;;;;;;;20.40;4.10;;;19.50;99.90;;;;;;4972655;28;20087;-59
2023/09/28 11:34:30;;;;;;;16.77;3.80;;;19.40;99.90;;;;;;4983660;28;20075;-59
2023/09/28 11:37:00;;;;;;;16.02;3.85;;;19.50;99.90;;;;;;4985163;28;20046;-59
2023/09/28 11:39:26;;;;;;;17.52;4.15;;;19.50;99.90;;;;;;4987081;28;20038;-59
2023/09/28 11:41:59;;;;;;;19.80;4.25;;;19.50;99.90;;;;;;4985168;28;20112;-58
2023/09/28 11:44:28;;;;;;;16.00;3.53;;;19.50;99.90;;;;;;4982119;28;20085;-58
2023/09/28 11:46:54;;;;;;;21.52;3.53;;;19.50;99.90;;;;;;4983896;28;20056;-58
2023/09/28 11:49:22;;;;;;;23.95;3.72;;;19.60;99.90;;;;;;4965850;28;20081;-57
2023/09/28 11:51:48;;;;;;;22.17;4.25;;;19.60;99.90;;;;;;4982757;28;20612;-59
2023/09/28 11:54:16;;;;;;;18.27;3.70;;;19.60;99.90;;;;;;4982435;28;20130;-57
2023/09/28 11:56:44;;;;;;;21.70;3.70;;;19.60;99.90;;;;;;4983943;28;20840;-59
2023/09/28 11:59:15;;;;;;;15.20;3.58;;;19.60;99.90;;;;;;4986184;28;20053;-59
2023/09/28 12:01:45;;;;;;;19.20;4.20;;;19.60;99.90;;;;;;4987445;28;20556;-58
2023/09/28 12:04:11;;;;;;;17.88;3.60;;;19.60;99.90;;;;;;4973971;28;20042;-59
2023/09/28 12:06:37;;;;;;;17.80;3.90;;;19.70;99.90;;;;;;4988127;28;20237;-59
2023/09/28 12:09:06;;;;;;;19.88;3.70;;;19.60;99.90;;;;;;4976541;28;20089;-59
2023/09/28 12:11:33;;;;;;;16.02;3.22;;;19.70;99.90;;;;;;4989805;28;20056;-59
2023/09/28 12:13:59;;;;;;;22.80;4.32;;;19.70;99.90;;;;;;4990473;28;20618;-59
2023/09/28 12:16:26;;;;;;;24.25;4.63;;;19.70;99.90;;;;;;4992532;28;20656;-59
2023/09/28 12:18:52;;;;;;;17.90;3.75;;;19.80;99.90;;;;;;4963727;28;20054;-58
2023/09/28 12:21:17;;;;;;;22.23;4.43;;;19.90;99.90;;;;;;5007079;28;20042;-59
2023/09/28 12:23:43;;;;;;;17.35;4.25;;;19.90;99.90;;;;;;4994855;28;20456;-58
2023/09/28 12:26:10;;;;;;;20.20;4.60;;;19.90;99.90;;;;;;5011405;28;20045;-58
2023/09/28 12:28:37;;;;;;;23.83;3.90;;;19.90;99.90;;;;;;5008747;28;20531;-58
2023/09/28 12:31:04;;;;;;;22.10;4.15;;;19.90;99.90;;;;;;5010251;28;20103;-58
2023/09/28 12:33:30;;;;;;;20.05;4.03;;;19.90;99.90;;;;;;5010674;28;20081;-59
2023/09/28 12:35:59;;;;;;;21.50;4.70;;;19.80;99.90;;;;;;5010638;28;20088;-59
2023/09/28 12:38:24;;;;;;;17.15;4.40;;;19.80;99.90;;;;;;5010777;28;20080;-58
2023/09/28 12:40:50;;;;;;;18.83;4.50;;;19.70;99.90;;;;;;5008771;28;20568;-58
2023/09/28 12:43:16;;;;;;;22.92;3.63;;;19.60;99.90;;;;;;5008469;28;20168;-59
2023/09/28 12:45:43;;;;;;;19.17;3.75;;;19.70;99.90;;;;;;4977488;28;20497;-58